Nearby METAR Reports

 

EGEO - Oban, United Kingdom
Distance from station: SSW 18mi, 30km
Updated: 17/04/2018 16:20
NOT Current
Light rain, Showers, Partly cloudy
Light rain, Showers, Partly cloudy
 Wind from SSE
Wind: SSE 18 mph , 30 km/h
Temperature: 14°C
Dew Point: 10°C
Humidity: 77%
Barometer: 1004 hPa
Summary: Light rain, Showers
Clouds: Partly cloudy
Visibility: 4 miles , 7 km
Cloud details: Few Clouds 549 m
Partly cloudy 640 m
2018/04/17 15:20 EGEO 171520Z 16016KT 7000 -SHRA FEW018 SCT021 14/10 Q1004
EGPU - Tiree, United Kingdom
Distance from station: WSW 64mi, 103km
Updated: 21/04/2018 06:20
Mostly cloudy
Mostly cloudy
 Wind from S
Wind: S 14 mph , 22 km/h
Temperature: 7°C
Wind Chill: 4°C
Dew Point: 7°C
Humidity: 100%
Barometer: 1019 hPa
Clouds: Mostly cloudy
Visibility: 6 miles , 10 km
Cloud details: Mostly cloudy 1128 m
2018/04/21 05:20 EGPU 210520Z AUTO 17012KT 9999 BKN037/// 07/07 Q1019
EGPF - Glasgow, United Kingdom
Distance from station: SSE 66mi, 107km
Updated: 21/04/2018 06:20
Mostly cloudy
Mostly cloudy
 Wind from ENE
Wind: ENE 3 mph , 6 km/h
Temperature: 5°C
Dew Point: 4°C
Humidity: 93%
Barometer: 1022 hPa
Clouds: Mostly cloudy
Visibility: 4 miles , 7 km
Cloud details: Mostly cloudy 1189 m
2018/04/21 05:20 EGPF 210520Z AUTO 06003KT 7000 BKN039 05/04 Q1022
 
EGPE - Inverness, United Kingdom
Distance from station: NE 71mi, 114km
Updated: 21/04/2018 06:20
Few Clouds
Few Clouds
 Wind from SW
Wind: SW 7 mph , 11 km/h
Temperature: 3°C
Wind Chill: 0°C
Dew Point: 3°C
Humidity: 100%
Barometer: 1021 hPa
Clouds: Few Clouds
Visibility: 6 miles , 10 km
Cloud details: Few Clouds 1067 m
2018/04/21 05:20 EGPE 210520Z 22006KT 9999 FEW035 03/03 Q1021
EGPI - Islay/Port Ellen, United Kingdom
Distance from station: SSW 81mi, 131km
Updated: 21/04/2018 06:20
Partly cloudy
Partly cloudy
 Wind from ESE
Wind: ESE 9 mph , 15 km/h
Temperature: 6°C
Wind Chill: 3°C
Dew Point: 6°C
Humidity: 100%
Barometer: 1020 hPa
Clouds: Partly cloudy
Visibility: 6 miles , 10 km
Cloud details: Partly cloudy 1097 m
2018/04/21 05:20 EGPI 210520Z AUTO 12008KT 9999 SCT036/// 06/06 Q1020
EGPN - Dundee/Riverside, United Kingdom
Distance from station: E 86mi, 138km
Updated: 20/04/2018 20:20
NOT Current
Few Clouds
Few Clouds
 Wind from W
Wind: W 9 mph , 15 km/h
Temperature: 12°C
Dew Point: 6°C
Humidity: 67%
Barometer: 1022 hPa
Clouds: Few Clouds
Visibility: 6 miles , 10 km
Cloud details: Few Clouds 1280 m
2018/04/20 19:20 EGPN 201920Z 27008KT 9999 FEW042 12/06 Q1022
 
EGPK - Prestwick, United Kingdom
Distance from station: SSE 88mi, 141km
Updated: 21/04/2018 05:50
Few Clouds
Few Clouds
 Wind from ESE
Wind: ESE 2 mph , 4 km/h
Temperature: 5°C
Dew Point: 3°C
Humidity: 87%
Barometer: 1022 hPa
Clouds: Few Clouds
Visibility: 6 miles , 10 km
Cloud details: Few Clouds 975 m
2018/04/21 04:50 EGPK 210450Z 11002KT 9999 FEW032 05/03 Q1022
EGPH - Edinburgh, United Kingdom
Distance from station: SE 89mi, 143km
Updated: 21/04/2018 06:20
Nearby fog, Partly cloudy
Nearby fog, Partly cloudy
 Wind from calm
Wind: Calm
Temperature: 3°C
Dew Point: 2°C
Humidity: 93%
Barometer: 1022 hPa
Summary: Nearby Fog
Clouds: Partly cloudy
Visibility: 1 mile , 2 km
2018/04/21 05:20 EGPH 210520Z 00000KT 2000 VCFG NSC 03/02 Q1022
EGQK - RAF Kinloss, United Kingdom
Distance from station: NE 90mi, 144km
Updated: 21/04/2018 05:50
Clear
Clear
 Wind from SSW
Wind: SSW 5 mph , 7 km/h
Temperature: 5°C
Wind Chill: 3°C
Dew Point: 2°C
Humidity: 81%
Barometer: 1020 hPa
Clouds: Clear
Visibility: 6 miles , 10 km
2018/04/21 04:50 EGQK 210450Z AUTO 20004KT 9999 NCD 05/02 Q1020
 
EGEC - Campbeltown, United Kingdom
Distance from station: S 90mi, 145km
Updated: 21/04/2018 03:50
NOT Current
Mostly cloudy
Mostly cloudy
 Wind from ESE
Wind: ESE 6 mph , 9 km/h
Temperature: 6°C
Wind Chill: 4°C
Dew Point: 5°C
Humidity: 93%
Barometer: 1022 hPa
Clouds: Mostly cloudy
Visibility: 6 miles , 10 km
Cloud details: Mostly cloudy 1097 m
2018/04/21 02:50 EGEC 210250Z 12005KT 9999 BKN036 06/05 Q1022
EGQA - Tain Range, United Kingdom
Distance from station: NNE 91mi, 146km
Updated: 20/04/2018 11:50
NOT Current
Few Clouds
Few Clouds
 Wind from WSW
Wind: WSW 22 mph , 35 km/h
Clouds: Few Clouds
Visibility: 6 miles , 10 km
Cloud details: Few Clouds 457 m
2018/04/20 10:50 EGQA 201050Z 24019KT 9999 FEW015 14/// Q1019 BLU
EGQL - RAF Leuchars, United Kingdom
Distance from station: ESE 93mi, 149km
Updated: 21/04/2018 05:50
Clear
Clear
 Wind from E
Wind: E 1 mph , 2 km/h
Temperature: 4°C
Dew Point: 2°C
Humidity: 87%
Barometer: 1022 hPa
Summary: Clear
Visibility: greater than 7 miles , 10 km
2018/04/21 04:50 EGQL 210450Z 09001KT CAVOK 04/02 Q1022 BLU
 
EGPL - Benbecula, United Kingdom
Distance from station: WNW 96mi, 154km
Updated: 21/04/2018 06:20
Partly cloudy
Partly cloudy
 Wind from S
Wind: S 10 mph , 17 km/h
Temperature: 7°C
Wind Chill: 4°C
Dew Point: 7°C
Humidity: 100%
Barometer: 1018 hPa
Clouds: Partly cloudy
Visibility: 6 miles , 10 km
Cloud details: Partly cloudy 244 m
2018/04/21 05:20 EGPL 210520Z AUTO 19009KT 9999 SCT008/// 07/07 Q1018
EGQS - RAF Lossiemouth, United Kingdom
Distance from station: NE 99mi, 160km
Updated: 21/04/2018 05:50
Clear
Clear
 Wind from SSW
Wind: SSW 2 mph , 4 km/h
Temperature: 3°C
Dew Point: 1°C
Humidity: 87%
Barometer: 1021 hPa
Summary: Clear
Visibility: greater than 7 miles , 10 km
2018/04/21 04:50 EGQS 210450Z 21002KT CAVOK 03/01 Q1021 BLU
EGPO - Stornoway, United Kingdom
Distance from station: NNW 111mi, 179km
Updated: 21/04/2018 06:20
Mostly cloudy
Mostly cloudy
 Wind from SSW
Wind: SSW 9 mph , 15 km/h
Temperature: 7°C
Wind Chill: 4°C
Dew Point: 7°C
Humidity: 100%
Barometer: 1019 hPa
Clouds: Mostly cloudy
Visibility: 6 miles , 10 km
Cloud details: Few Clouds 122 m
Partly cloudy 213 m
Mostly cloudy 914 m
2018/04/21 05:20 EGPO 210520Z 21008KT 9999 FEW004 SCT007 BKN030 07/07 Q1019
 
EGPD - Aberdeen/Dyce, United Kingdom
Distance from station: ENE 118mi, 190km
Updated: 21/04/2018 06:20
Clear
Clear
 Wind from NNW
Wind: NNW 3 mph , 6 km/h
Temperature: 3°C
Dew Point: 1°C
Humidity: 87%
Barometer: 1021 hPa
Clouds: Clear
Visibility: 6 miles , 10 km
2018/04/21 05:20 EGPD 210520Z AUTO 33003KT 9999 NCD 03/01 Q1021 NOSIG
EGAE - Eglinton/Londond, United Kingdom
Distance from station: SSW 138mi, 222km
Updated: 20/04/2018 20:20
NOT Current
Few Clouds
Few Clouds
 Wind from W
Wind: W 10 mph , 17 km/h
Temperature: 11°C
Dew Point: 5°C
Humidity: 67%
Barometer: 1023 hPa
Clouds: Few Clouds
Visibility: 6 miles , 10 km
Cloud details: Few Clouds 1250 m
2018/04/20 19:20 EGAE 201920Z 26009KT 9999 FEW041 11/05 Q1023
EGPC - Wick, United Kingdom
Distance from station: NNE 144mi, 232km
Updated: 21/04/2018 06:20
Clear
Clear
 Wind from SW
Wind: SW 3 mph , 6 km/h
Temperature: 5°C
Dew Point: 3°C
Humidity: 87%
Barometer: 1020 hPa
Clouds: Clear
Visibility: 6 miles , 10 km
2018/04/21 05:20 EGPC 210520Z AUTO 22003KT 9999 NCD 05/03 Q1020

Metar display script from Saratoga-Weather.org